sensor_id;sensor_type;location;lat;lon;timestamp;temperature;humidity
16728;DHT22;8482;54.396;18.590;2023-12-20T15:02:26;6.90;99.90
16728;DHT22;8482;54.396;18.590;2023-12-20T15:04:52;6.90;99.90
16728;DHT22;8482;54.396;18.590;2023-12-20T15:07:18;6.90;99.90
16728;DHT22;8482;54.396;18.590;2023-12-20T15:09:45;7.00;99.90
16728;DHT22;8482;54.396;18.590;2023-12-20T15:12:12;7.00;99.90
16728;DHT22;8482;54.396;18.590;2023-12-20T15:14:39;7.00;99.90
16728;DHT22;8482;54.396;18.590;2023-12-20T15:17:05;7.10;99.90
16728;DHT22;8482;54.396;18.590;2023-12-20T15:19:31;7.10;99.90
16728;DHT22;8482;54.396;18.590;2023-12-20T15:21:57;7.10;99.90
16728;DHT22;8482;54.396;18.590;2023-12-20T15:24:25;7.10;99.90
16728;DHT22;8482;54.396;18.590;2023-12-20T15:27:04;7.10;99.90
16728;DHT22;8482;54.396;18.590;2023-12-20T15:29:30;7.20;99.90
16728;DHT22;8482;54.396;18.590;2023-12-20T15:31:56;7.20;99.90
16728;DHT22;8482;54.396;18.590;2023-12-20T15:34:22;7.20;99.90
16728;DHT22;8482;54.396;18.590;2023-12-20T15:36:48;7.20;99.90
16728;DHT22;8482;54.396;18.590;2023-12-20T15:39:14;7.20;99.90
16728;DHT22;8482;54.396;18.590;2023-12-20T15:41:40;7.20;99.90
16728;DHT22;8482;54.396;18.590;2023-12-20T15:44:06;7.20;99.90
16728;DHT22;8482;54.396;18.590;2023-12-20T15:46:31;7.20;99.90
16728;DHT22;8482;54.396;18.590;2023-12-20T15:48:58;7.30;99.90
16728;DHT22;8482;54.396;18.590;2023-12-20T15:51:23;7.20;99.90
16728;DHT22;8482;54.396;18.590;2023-12-20T15:53:50;7.20;99.90
16728;DHT22;8482;54.396;18.590;2023-12-20T15:56:19;7.20;99.90
16728;DHT22;8482;54.396;18.590;2023-12-20T15:58:45;7.30;99.90
16728;DHT22;8482;54.396;18.590;2023-12-20T16:01:13;7.30;99.90
16728;DHT22;8482;54.396;18.590;2023-12-20T16:03:39;7.30;99.90
16728;DHT22;8482;54.396;18.590;2023-12-20T16:06:06;7.20;99.90
16728;DHT22;8482;54.396;18.590;2023-12-20T16:08:32;7.20;99.90
16728;DHT22;8482;54.396;18.590;2023-12-20T16:10:58;7.20;99.90
16728;DHT22;8482;54.396;18.590;2023-12-20T16:13:24;7.10;99.90
16728;DHT22;8482;54.396;18.590;2023-12-20T16:15:50;7.10;99.90
16728;DHT22;8482;54.396;18.590;2023-12-20T16:18:16;7.00;99.90
16728;DHT22;8482;54.396;18.590;2023-12-20T16:20:41;6.90;99.90
16728;DHT22;8482;54.396;18.590;2023-12-20T16:23:07;6.90;99.90
16728;DHT22;8482;54.396;18.590;2023-12-20T16:25:33;6.80;99.90
16728;DHT22;8482;54.396;18.590;2023-12-20T16:28:04;6.70;99.90
16728;DHT22;8482;54.396;18.590;2023-12-20T16:30:30;6.60;99.90
16728;DHT22;8482;54.396;18.590;2023-12-20T16:32:56;6.60;99.90
16728;DHT22;8482;54.396;18.590;2023-12-20T16:35:22;6.50;99.90
16728;DHT22;8482;54.396;18.590;2023-12-20T16:37:48;6.40;99.90
16728;DHT22;8482;54.396;18.590;2023-12-20T16:40:14;6.30;99.90
16728;DHT22;8482;54.396;18.590;2023-12-20T16:42:40;6.30;99.90
16728;DHT22;8482;54.396;18.590;2023-12-20T16:45:06;6.30;99.90
16728;DHT22;8482;54.396;18.590;2023-12-20T16:47:32;6.20;99.90
16728;DHT22;8482;54.396;18.590;2023-12-20T16:49:58;6.20;99.90
16728;DHT22;8482;54.396;18.590;2023-12-20T16:52:26;6.10;99.90
16728;DHT22;8482;54.396;18.590;2023-12-20T16:54:52;6.10;99.90
16728;DHT22;8482;54.396;18.590;2023-12-20T16:57:17;6.10;99.90
16728;DHT22;8482;54.396;18.590;2023-12-20T16:59:46;6.00;99.90
16728;DHT22;8482;54.396;18.590;2023-12-20T17:02:12;6.00;99.90
16728;DHT22;8482;54.396;18.590;2023-12-20T17:04:38;5.90;99.90
16728;DHT22;8482;54.396;18.590;2023-12-20T17:07:04;5.90;99.90
16728;DHT22;8482;54.396;18.590;2023-12-20T17:09:30;5.90;99.90
16728;DHT22;8482;54.396;18.590;2023-12-20T17:11:56;5.90;99.90
16728;DHT22;8482;54.396;18.590;2023-12-20T17:14:22;5.90;99.90
16728;DHT22;8482;54.396;18.590;2023-12-20T17:16:48;5.90;99.90
16728;DHT22;8482;54.396;18.590;2023-12-20T17:19:15;5.90;99.90
16728;DHT22;8482;54.396;18.590;2023-12-20T17:21:41;5.90;99.90
16728;DHT22;8482;54.396;18.590;2023-12-20T17:24:08;5.90;99.90
16728;DHT22;8482;54.396;18.590;2023-12-20T17:26:33;5.90;99.90
16728;DHT22;8482;54.396;18.590;2023-12-20T17:28:59;5.90;99.90
16728;DHT22;8482;54.396;18.590;2023-12-20T17:31:25;5.90;99.90
16728;DHT22;8482;54.396;18.590;2023-12-20T17:33:51;5.90;99.90
16728;DHT22;8482;54.396;18.590;2023-12-20T17:36:16;5.90;99.90
16728;DHT22;8482;54.396;18.590;2023-12-20T17:38:42;5.90;99.90
16728;DHT22;8482;54.396;18.590;2023-12-20T17:41:08;5.90;99.90
16728;DHT22;8482;54.396;18.590;2023-12-20T17:43:34;5.90;99.90
16728;DHT22;8482;54.396;18.590;2023-12-20T17:46:00;5.90;99.90
16728;DHT22;8482;54.396;18.590;2023-12-20T17:48:26;5.90;99.90
16728;DHT22;8482;54.396;18.590;2023-12-20T17:50:52;6.00;99.90
16728;DHT22;8482;54.396;18.590;2023-12-20T17:53:17;6.00;99.90
16728;DHT22;8482;54.396;18.590;2023-12-20T17:55:43;6.00;99.90
16728;DHT22;8482;54.396;18.590;2023-12-20T17:58:09;6.00;99.90
16728;DHT22;8482;54.396;18.590;2023-12-20T18:00:36;6.00;99.90
16728;DHT22;8482;54.396;18.590;2023-12-20T18:03:03;6.00;99.90
16728;DHT22;8482;54.396;18.590;2023-12-20T18:05:29;6.00;99.90
16728;DHT22;8482;54.396;18.590;2023-12-20T18:07:55;6.00;99.90
16728;DHT22;8482;54.396;18.590;2023-12-20T18:10:21;5.90;99.90
16728;DHT22;8482;54.396;18.590;2023-12-20T18:12:47;5.90;99.90
16728;DHT22;8482;54.396;18.590;2023-12-20T18:15:14;5.90;99.90
16728;DHT22;8482;54.396;18.590;2023-12-20T18:17:40;5.90;99.90
16728;DHT22;8482;54.396;18.590;2023-12-20T18:20:07;5.90;99.90
16728;DHT22;8482;54.396;18.590;2023-12-20T18:22:33;5.90;99.90
16728;DHT22;8482;54.396;18.590;2023-12-20T18:24:59;5.90;99.90
16728;DHT22;8482;54.396;18.590;2023-12-20T18:27:25;5.90;99.90
16728;DHT22;8482;54.396;18.590;2023-12-20T18:29:51;5.90;99.90
16728;DHT22;8482;54.396;18.590;2023-12-20T18:32:18;5.90;99.90
16728;DHT22;8482;54.396;18.590;2023-12-20T18:34:44;5.90;99.90
16728;DHT22;8482;54.396;18.590;2023-12-20T18:37:11;5.90;99.90
16728;DHT22;8482;54.396;18.590;2023-12-20T18:39:37;5.80;99.90
16728;DHT22;8482;54.396;18.590;2023-12-20T18:42:07;5.80;99.90
16728;DHT22;8482;54.396;18.590;2023-12-20T18:44:34;5.80;99.90
16728;DHT22;8482;54.396;18.590;2023-12-20T18:47:00;5.70;99.90
16728;DHT22;8482;54.396;18.590;2023-12-20T18:49:26;5.70;99.90
16728;DHT22;8482;54.396;18.590;2023-12-20T18:51:52;5.70;99.90
16728;DHT22;8482;54.396;18.590;2023-12-20T18:54:18;5.60;99.90
16728;DHT22;8482;54.396;18.590;2023-12-20T18:56:46;5.60;99.90
16728;DHT22;8482;54.396;18.590;2023-12-20T18:59:13;5.60;99.90
16728;DHT22;8482;54.396;18.590;2023-12-20T19:01:43;5.60;99.90
16728;DHT22;8482;54.396;18.590;2023-12-20T19:04:09;5.50;99.90
16728;DHT22;8482;54.396;18.590;2023-12-20T19:06:34;5.50;99.90
16728;DHT22;8482;54.396;18.590;2023-12-20T19:09:00;5.50;99.90
16728;DHT22;8482;54.396;18.590;2023-12-20T19:11:26;5.50;99.90
16728;DHT22;8482;54.396;18.590;2023-12-20T19:13:52;5.40;99.90
16728;DHT22;8482;54.396;18.590;2023-12-20T19:16:18;5.40;99.90
16728;DHT22;8482;54.396;18.590;2023-12-20T19:18:43;5.40;99.90
16728;DHT22;8482;54.396;18.590;2023-12-20T19:21:11;5.30;99.90
16728;DHT22;8482;54.396;18.590;2023-12-20T19:23:37;5.30;99.90
16728;DHT22;8482;54.396;18.590;2023-12-20T19:26:03;5.30;99.90
16728;DHT22;8482;54.396;18.590;2023-12-20T19:28:29;5.20;99.90
16728;DHT22;8482;54.396;18.590;2023-12-20T19:30:55;5.10;99.90
16728;DHT22;8482;54.396;18.590;2023-12-20T19:33:24;5.10;99.90
16728;DHT22;8482;54.396;18.590;2023-12-20T19:35:50;5.00;99.90
16728;DHT22;8482;54.396;18.590;2023-12-20T19:38:16;5.00;99.90
16728;DHT22;8482;54.396;18.590;2023-12-20T19:40:42;4.90;99.90
16728;DHT22;8482;54.396;18.590;2023-12-20T19:43:08;4.90;99.90
16728;DHT22;8482;54.396;18.590;2023-12-20T19:45:35;4.90;99.90
16728;DHT22;8482;54.396;18.590;2023-12-20T19:48:00;4.90;99.90
16728;DHT22;8482;54.396;18.590;2023-12-20T19:50:26;4.80;99.90
16728;DHT22;8482;54.396;18.590;2023-12-20T19:52:52;4.80;99.90
16728;DHT22;8482;54.396;18.590;2023-12-20T19:55:18;4.80;99.90
16728;DHT22;8482;54.396;18.590;2023-12-20T19:57:44;4.80;99.90
16728;DHT22;8482;54.396;18.590;2023-12-20T20:00:10;4.80;99.90
16728;DHT22;8482;54.396;18.590;2023-12-20T20:02:36;4.80;99.90
16728;DHT22;8482;54.396;18.590;2023-12-20T20:05:04;4.70;99.90
16728;DHT22;8482;54.396;18.590;2023-12-20T20:07:32;4.70;99.90
16728;DHT22;8482;54.396;18.590;2023-12-20T20:09:59;4.70;99.90
16728;DHT22;8482;54.396;18.590;2023-12-20T20:12:25;4.70;99.90
16728;DHT22;8482;54.396;18.590;2023-12-20T20:14:51;4.80;99.90
16728;DHT22;8482;54.396;18.590;2023-12-20T20:17:16;4.70;99.90
16728;DHT22;8482;54.396;18.590;2023-12-20T20:19:43;4.80;99.90
16728;DHT22;8482;54.396;18.590;2023-12-20T20:22:09;4.80;99.90
16728;DHT22;8482;54.396;18.590;2023-12-20T20:24:37;4.80;99.90
16728;DHT22;8482;54.396;18.590;2023-12-20T20:27:03;4.80;99.90
16728;DHT22;8482;54.396;18.590;2023-12-20T20:29:29;4.80;99.90
16728;DHT22;8482;54.396;18.590;2023-12-20T20:31:55;4.90;99.90
16728;DHT22;8482;54.396;18.590;2023-12-20T20:34:21;4.90;99.90
16728;DHT22;8482;54.396;18.590;2023-12-20T20:36:56;4.90;99.90
16728;DHT22;8482;54.396;18.590;2023-12-20T20:39:22;4.90;99.90
16728;DHT22;8482;54.396;18.590;2023-12-20T20:41:48;4.90;99.90
16728;DHT22;8482;54.396;18.590;2023-12-20T20:44:14;4.90;99.90
16728;DHT22;8482;54.396;18.590;2023-12-20T20:46:40;4.90;99.90
16728;DHT22;8482;54.396;18.590;2023-12-20T20:49:07;4.90;99.90
16728;DHT22;8482;54.396;18.590;2023-12-20T20:51:33;4.90;99.90
16728;DHT22;8482;54.396;18.590;2023-12-20T20:53:59;4.90;99.90
16728;DHT22;8482;54.396;18.590;2023-12-20T20:56:25;4.90;99.90
16728;DHT22;8482;54.396;18.590;2023-12-20T20:58:50;4.90;99.90
16728;DHT22;8482;54.396;18.590;2023-12-20T21:01:18;4.90;99.90
16728;DHT22;8482;54.396;18.590;2023-12-20T21:03:44;4.90;99.90
16728;DHT22;8482;54.396;18.590;2023-12-20T21:06:11;4.90;99.90
16728;DHT22;8482;54.396;18.590;2023-12-20T21:08:37;4.90;99.90
16728;DHT22;8482;54.396;18.590;2023-12-20T21:11:03;4.90;99.90
16728;DHT22;8482;54.396;18.590;2023-12-20T21:13:29;4.90;99.90
16728;DHT22;8482;54.396;18.590;2023-12-20T21:15:55;4.90;99.90
16728;DHT22;8482;54.396;18.590;2023-12-20T21:18:22;4.90;99.90
16728;DHT22;8482;54.396;18.590;2023-12-20T21:20:47;4.90;99.90
16728;DHT22;8482;54.396;18.590;2023-12-20T21:23:17;4.90;99.90
16728;DHT22;8482;54.396;18.590;2023-12-20T21:25:43;4.90;99.90
16728;DHT22;8482;54.396;18.590;2023-12-20T21:28:10;4.90;99.90
16728;DHT22;8482;54.396;18.590;2023-12-20T21:30:37;4.90;99.90
16728;DHT22;8482;54.396;18.590;2023-12-20T21:33:03;4.90;99.90
16728;DHT22;8482;54.396;18.590;2023-12-20T21:35:30;4.90;99.90
16728;DHT22;8482;54.396;18.590;2023-12-20T21:37:56;4.90;99.90
16728;DHT22;8482;54.396;18.590;2023-12-20T21:40:22;4.90;99.90
16728;DHT22;8482;54.396;18.590;2023-12-20T21:42:48;4.90;99.90
16728;DHT22;8482;54.396;18.590;2023-12-20T21:45:14;4.90;99.90
16728;DHT22;8482;54.396;18.590;2023-12-20T21:47:40;4.90;99.90
16728;DHT22;8482;54.396;18.590;2023-12-20T21:50:08;4.90;99.90
16728;DHT22;8482;54.396;18.590;2023-12-20T21:52:34;4.90;99.90
16728;DHT22;8482;54.396;18.590;2023-12-20T21:55:00;5.00;99.90
16728;DHT22;8482;54.396;18.590;2023-12-20T21:57:26;5.00;99.90
16728;DHT22;8482;54.396;18.590;2023-12-20T21:59:52;4.90;99.90
16728;DHT22;8482;54.396;18.590;2023-12-20T22:02:17;5.00;99.90
16728;DHT22;8482;54.396;18.590;2023-12-20T22:04:43;5.00;99.90
16728;DHT22;8482;54.396;18.590;2023-12-20T22:07:09;4.90;99.90
16728;DHT22;8482;54.396;18.590;2023-12-20T22:09:35;4.90;99.90
16728;DHT22;8482;54.396;18.590;2023-12-20T22:12:01;4.90;99.90
16728;DHT22;8482;54.396;18.590;2023-12-20T22:14:28;4.80;99.90
16728;DHT22;8482;54.396;18.590;2023-12-20T22:16:56;4.80;99.90
16728;DHT22;8482;54.396;18.590;2023-12-20T22:19:23;4.80;99.90
16728;DHT22;8482;54.396;18.590;2023-12-20T22:21:49;4.80;99.90
16728;DHT22;8482;54.396;18.590;2023-12-20T22:24:15;4.80;99.90
16728;DHT22;8482;54.396;18.590;2023-12-20T22:26:40;4.80;99.90
16728;DHT22;8482;54.396;18.590;2023-12-20T22:29:06;4.70;99.90
16728;DHT22;8482;54.396;18.590;2023-12-20T22:31:32;4.70;99.90
16728;DHT22;8482;54.396;18.590;2023-12-20T22:33:58;4.70;99.90
16728;DHT22;8482;54.396;18.590;2023-12-20T22:36:23;4.70;99.90
16728;DHT22;8482;54.396;18.590;2023-12-20T22:38:50;4.60;99.90
16728;DHT22;8482;54.396;18.590;2023-12-20T22:41:18;4.50;99.90
16728;DHT22;8482;54.396;18.590;2023-12-20T22:43:44;4.50;99.90
16728;DHT22;8482;54.396;18.590;2023-12-20T22:46:10;4.40;99.90
16728;DHT22;8482;54.396;18.590;2023-12-20T22:48:36;4.40;99.90
16728;DHT22;8482;54.396;18.590;2023-12-20T22:51:04;4.40;99.90
16728;DHT22;8482;54.396;18.590;2023-12-20T22:53:30;4.30;99.90
16728;DHT22;8482;54.396;18.590;2023-12-20T22:55:55;4.30;99.90
16728;DHT22;8482;54.396;18.590;2023-12-20T22:58:21;4.30;99.90
16728;DHT22;8482;54.396;18.590;2023-12-20T23:00:48;4.20;99.90
16728;DHT22;8482;54.396;18.590;2023-12-20T23:03:14;4.20;99.90
